Time;durP1;ratioP1;P1;durP2;ratioP2;P2;SDS_P1;SDS_P2;PMS_P1;PMS_P2;Temp;Humidity;BMP_temperature;BMP_pressure;BME280_temperature;BME280_humidity;BME280_pressure;Samples;Min_cycle;Max_cycle;Signal;HPM_P1;HPM_P2
2023/10/27 00:01:51;;;;;;;2.20;0.40;;;;;;;;;;5052170;28;20021;-70
2023/10/27 00:04:17;;;;;;;1.23;0.28;;;;;;;;;;5052480;28;20021;-70
2023/10/27 00:06:43;;;;;;;1.05;0.40;;;;;;;;;;5052532;28;20032;-69
2023/10/27 00:09:09;;;;;;;3.42;0.50;;;;;;;;;;5052349;28;20074;-70
2023/10/27 00:11:36;;;;;;;2.05;0.40;;;;;;;;;;5050864;28;20388;-69
2023/10/27 00:14:03;;;;;;;0.38;0.28;;;;;;;;;;5052272;28;20021;-70
2023/10/27 00:16:29;;;;;;;1.73;0.40;;;;;;;;;;5051750;28;20029;-69
2023/10/27 00:18:56;;;;;;;2.42;0.50;;;;;;;;;;5052161;28;20024;-70
2023/10/27 00:21:22;;;;;;;0.75;0.20;;;;;;;;;;5052202;28;20028;-69
2023/10/27 00:23:48;;;;;;;1.15;0.22;;;;;;;;;;5052530;28;20416;-70
2023/10/27 00:26:14;;;;;;;6.22;0.47;;;;;;;;;;5056043;28;20025;-69
2023/10/27 00:28:41;;;;;;;2.30;0.40;;;;;;;;;;5055734;28;20021;-69
2023/10/27 00:31:07;;;;;;;2.20;0.50;;;;;;;;;;5055510;28;20051;-69
2023/10/27 00:33:34;;;;;;;3.95;0.50;;;;;;;;;;5055719;28;20041;-69
2023/10/27 00:36:00;;;;;;;1.30;0.28;;;;;;;;;;5055645;28;20025;-70
2023/10/27 00:38:27;;;;;;;2.47;0.50;;;;;;;;;;5055670;28;20439;-70
2023/10/27 00:40:53;;;;;;;0.65;0.20;;;;;;;;;;5055709;28;20020;-69
2023/10/27 00:43:20;;;;;;;6.47;0.93;;;;;;;;;;5055326;28;20035;-69
2023/10/27 00:45:47;;;;;;;2.35;0.40;;;;;;;;;;5055169;28;20019;-70
2023/10/27 00:48:14;;;;;;;2.30;0.40;;;;;;;;;;5055436;28;20029;-70
2023/10/27 00:50:40;;;;;;;4.47;0.52;;;;;;;;;;5055632;28;20021;-70
2023/10/27 00:53:07;;;;;;;0.73;0.68;;;;;;;;;;5055376;28;20040;-69
2023/10/27 00:55:35;;;;;;;4.43;0.82;;;;;;;;;;5055720;28;20033;-70
2023/10/27 00:58:02;;;;;;;1.65;0.52;;;;;;;;;;5055269;28;20045;-70
2023/10/27 01:00:29;;;;;;;1.95;0.50;;;;;;;;;;5055022;28;20036;-70
2023/10/27 01:02:55;;;;;;;4.15;0.70;;;;;;;;;;5055196;28;20029;-69
2023/10/27 01:05:21;;;;;;;2.25;0.70;;;;;;;;;;5055292;28;20024;-70
2023/10/27 01:07:48;;;;;;;3.33;0.60;;;;;;;;;;5055248;28;20536;-70
2023/10/27 01:10:14;;;;;;;5.05;1.00;;;;;;;;;;5055076;28;20494;-70
2023/10/27 01:12:45;;;;;;;3.55;0.52;;;;;;;;;;5054904;28;20039;-70
2023/10/27 01:15:12;;;;;;;4.63;0.50;;;;;;;;;;5054650;28;20035;-70
2023/10/27 01:17:38;;;;;;;4.07;0.50;;;;;;;;;;5054873;28;20389;-69
2023/10/27 01:20:05;;;;;;;2.92;0.40;;;;;;;;;;5055182;28;20032;-69
2023/10/27 01:22:33;;;;;;;1.35;0.35;;;;;;;;;;5053592;28;20031;-69
2023/10/27 01:24:59;;;;;;;5.30;0.70;;;;;;;;;;5055133;28;20029;-69
2023/10/27 01:27:26;;;;;;;2.28;0.40;;;;;;;;;;5054781;28;20021;-69
2023/10/27 01:29:52;;;;;;;2.28;0.50;;;;;;;;;;5054374;28;20431;-70
2023/10/27 01:32:18;;;;;;;1.15;0.40;;;;;;;;;;5054722;28;20051;-69
2023/10/27 01:34:44;;;;;;;5.60;0.95;;;;;;;;;;5054780;28;20017;-69
2023/10/27 01:37:11;;;;;;;1.80;0.65;;;;;;;;;;5053753;28;20078;-70
2023/10/27 01:39:37;;;;;;;2.47;0.50;;;;;;;;;;5054421;28;20492;-70
2023/10/27 01:42:04;;;;;;;1.30;0.60;;;;;;;;;;5054457;28;20504;-70
2023/10/27 01:44:30;;;;;;;4.25;0.60;;;;;;;;;;5054099;28;20040;-69
2023/10/27 01:46:57;;;;;;;8.45;0.85;;;;;;;;;;5054341;28;20535;-69
2023/10/27 01:49:23;;;;;;;3.95;0.90;;;;;;;;;;5054923;28;20017;-70
2023/10/27 01:51:49;;;;;;;3.22;0.90;;;;;;;;;;5054251;28;20025;-70
2023/10/27 01:54:15;;;;;;;4.22;0.80;;;;;;;;;;5054222;28;20025;-70
2023/10/27 01:56:42;;;;;;;3.13;0.60;;;;;;;;;;5054225;28;20021;-69
2023/10/27 01:59:08;;;;;;;3.92;0.80;;;;;;;;;;5053697;28;20036;-69
2023/10/27 02:01:34;;;;;;;4.55;0.93;;;;;;;;;;5054568;28;20033;-70
2023/10/27 02:04:01;;;;;;;5.72;0.80;;;;;;;;;;5054338;28;20046;-69
2023/10/27 02:06:28;;;;;;;5.88;0.95;;;;;;;;;;5054290;28;20033;-69
2023/10/27 02:08:54;;;;;;;4.22;1.00;;;;;;;;;;5054326;28;20021;-70
2023/10/27 02:11:21;;;;;;;8.10;1.10;;;;;;;;;;5054004;28;20025;-70
2023/10/27 02:13:47;;;;;;;7.22;1.13;;;;;;;;;;5053765;28;20036;-69
2023/10/27 02:16:13;;;;;;;9.90;1.75;;;;;;;;;;5052702;28;20090;-70
2023/10/27 02:18:40;;;;;;;6.05;1.33;;;;;;;;;;5053771;28;20025;-70
2023/10/27 02:21:06;;;;;;;8.75;1.35;;;;;;;;;;5053715;28;20481;-70
2023/10/27 02:23:33;;;;;;;5.65;1.33;;;;;;;;;;5053672;28;20025;-69
2023/10/27 02:25:59;;;;;;;9.30;1.00;;;;;;;;;;5053266;28;20046;-70
2023/10/27 02:28:25;;;;;;;7.22;1.15;;;;;;;;;;5053610;28;20385;-69
2023/10/27 02:30:52;;;;;;;9.05;1.50;;;;;;;;;;5053563;28;20027;-69
2023/10/27 02:33:18;;;;;;;12.07;1.20;;;;;;;;;;5053526;28;20500;-70
2023/10/27 02:35:44;;;;;;;5.55;1.00;;;;;;;;;;5053335;28;20028;-69
2023/10/27 02:38:11;;;;;;;7.25;1.30;;;;;;;;;;5053468;28;20105;-69
2023/10/27 02:40:38;;;;;;;10.88;1.73;;;;;;;;;;5053130;28;20035;-69
2023/10/27 02:43:04;;;;;;;10.77;1.27;;;;;;;;;;5051770;28;20074;-69
2023/10/27 02:45:30;;;;;;;9.98;1.75;;;;;;;;;;5053253;28;20023;-70
2023/10/27 02:47:57;;;;;;;8.50;1.42;;;;;;;;;;5052892;28;20037;-70
2023/10/27 02:50:23;;;;;;;10.57;1.48;;;;;;;;;;5053494;28;20020;-70
2023/10/27 02:52:49;;;;;;;8.95;1.30;;;;;;;;;;5053100;28;20053;-69
2023/10/27 02:55:16;;;;;;;7.88;1.58;;;;;;;;;;5052780;28;20025;-70
2023/10/27 02:57:42;;;;;;;10.18;1.60;;;;;;;;;;5051967;28;20039;-70
2023/10/27 03:00:09;;;;;;;9.82;1.30;;;;;;;;;;5052996;28;20041;-69
2023/10/27 03:02:35;;;;;;;9.13;1.33;;;;;;;;;;5053278;28;20021;-69
2023/10/27 03:05:02;;;;;;;8.02;1.55;;;;;;;;;;5053126;28;20055;-69
2023/10/27 03:07:28;;;;;;;11.82;1.40;;;;;;;;;;5052946;28;20024;-70
2023/10/27 03:09:54;;;;;;;8.50;1.23;;;;;;;;;;5052857;28;20055;-70
2023/10/27 03:12:21;;;;;;;11.32;1.60;;;;;;;;;;5052670;28;20032;-70
2023/10/27 03:14:47;;;;;;;11.10;1.70;;;;;;;;;;5053098;28;20021;-70
2023/10/27 03:17:13;;;;;;;7.68;1.50;;;;;;;;;;5052667;28;20035;-69
2023/10/27 03:19:40;;;;;;;9.43;1.60;;;;;;;;;;5052900;28;20033;-69
2023/10/27 03:22:06;;;;;;;8.55;1.25;;;;;;;;;;5052736;28;20025;-70
2023/10/27 03:24:33;;;;;;;10.00;1.40;;;;;;;;;;5052209;28;20037;-70
2023/10/27 03:26:59;;;;;;;7.88;1.10;;;;;;;;;;5052783;28;20017;-69
2023/10/27 03:29:25;;;;;;;10.23;1.23;;;;;;;;;;5052567;28;20025;-70
2023/10/27 03:31:52;;;;;;;11.10;1.58;;;;;;;;;;5052588;28;20033;-70
2023/10/27 03:34:18;;;;;;;6.95;1.30;;;;;;;;;;5052750;28;20036;-70
2023/10/27 03:36:44;;;;;;;7.60;1.73;;;;;;;;;;5052527;28;20455;-70
2023/10/27 03:39:11;;;;;;;7.28;1.33;;;;;;;;;;5052338;28;20482;-69
2023/10/27 03:41:38;;;;;;;12.00;1.58;;;;;;;;;;5051515;28;20029;-69
2023/10/27 03:44:05;;;;;;;3.58;0.95;;;;;;;;;;5052353;28;20024;-69
2023/10/27 03:46:31;;;;;;;10.15;1.50;;;;;;;;;;5052308;28;20032;-69
2023/10/27 03:48:58;;;;;;;9.88;1.50;;;;;;;;;;5052341;28;20029;-70
2023/10/27 03:51:25;;;;;;;8.15;1.63;;;;;;;;;;5052448;28;20021;-70
2023/10/27 03:53:54;;;;;;;13.18;1.40;;;;;;;;;;5052410;28;20031;-70
2023/10/27 03:56:20;;;;;;;5.70;1.25;;;;;;;;;;5050984;28;20035;-69
2023/10/27 03:58:46;;;;;;;8.68;1.35;;;;;;;;;;5052821;28;20497;-69
2023/10/27 04:01:13;;;;;;;8.73;1.42;;;;;;;;;;5056588;28;20029;-69
2023/10/27 04:03:39;;;;;;;10.63;1.60;;;;;;;;;;5056406;28;20503;-69
2023/10/27 04:06:05;;;;;;;8.70;1.35;;;;;;;;;;5056625;28;20117;-70
2023/10/27 04:08:32;;;;;;;9.60;1.73;;;;;;;;;;5056008;28;20021;-70
2023/10/27 04:10:58;;;;;;;10.80;2.33;;;;;;;;;;5056596;28;20024;-69
2023/10/27 04:13:24;;;;;;;11.50;1.58;;;;;;;;;;5056085;28;20393;-70
2023/10/27 04:15:51;;;;;;;5.20;1.15;;;;;;;;;;5056007;28;20025;-70
2023/10/27 04:18:17;;;;;;;7.13;1.42;;;;;;;;;;5056072;28;20543;-69
2023/10/27 04:20:44;;;;;;;7.40;1.40;;;;;;;;;;5056098;28;20029;-69
2023/10/27 04:23:10;;;;;;;8.93;1.02;;;;;;;;;;5055990;28;20035;-70
2023/10/27 04:25:39;;;;;;;8.60;1.42;;;;;;;;;;5055841;28;20037;-69
2023/10/27 04:28:06;;;;;;;8.68;1.45;;;;;;;;;;5055777;28;20462;-70
2023/10/27 04:30:33;;;;;;;9.98;1.42;;;;;;;;;;5055867;28;20392;-69
2023/10/27 04:33:00;;;;;;;11.30;1.63;;;;;;;;;;5055672;28;20041;-69
2023/10/27 04:35:26;;;;;;;8.65;2.05;;;;;;;;;;5055736;28;20047;-69
2023/10/27 04:37:53;;;;;;;10.40;2.05;;;;;;;;;;5055407;28;20393;-69
2023/10/27 04:40:19;;;;;;;6.45;1.40;;;;;;;;;;5055604;28;20017;-70
2023/10/27 04:42:46;;;;;;;9.85;1.88;;;;;;;;;;5055439;28;20482;-70
2023/10/27 04:45:12;;;;;;;13.75;1.40;;;;;;;;;;5055770;28;20021;-69
2023/10/27 04:47:38;;;;;;;10.35;2.00;;;;;;;;;;5055417;28;20033;-69
2023/10/27 04:50:05;;;;;;;10.50;2.15;;;;;;;;;;5055401;28;20028;-70
2023/10/27 04:52:32;;;;;;;7.28;2.00;;;;;;;;;;5055162;28;20470;-69
2023/10/27 04:54:59;;;;;;;8.60;1.67;;;;;;;;;;5055300;28;20378;-69
2023/10/27 04:57:25;;;;;;;10.55;1.80;;;;;;;;;;5055299;28;20391;-69
2023/10/27 04:59:52;;;;;;;8.10;1.58;;;;;;;;;;5055281;28;20057;-69
2023/10/27 05:02:18;;;;;;;7.72;1.40;;;;;;;;;;5055051;28;20059;-69
2023/10/27 05:04:44;;;;;;;7.53;1.50;;;;;;;;;;5055037;28;20037;-69
2023/10/27 05:07:11;;;;;;;7.72;1.33;;;;;;;;;;5054908;28;20470;-69
2023/10/27 05:09:37;;;;;;;9.60;1.40;;;;;;;;;;5055206;28;20439;-69
2023/10/27 05:12:04;;;;;;;10.23;1.20;;;;;;;;;;5055289;28;20051;-69
2023/10/27 05:14:32;;;;;;;10.57;1.20;;;;;;;;;;5054870;28;20478;-69
2023/10/27 05:16:59;;;;;;;6.22;1.35;;;;;;;;;;5054898;28;20077;-70
2023/10/27 05:19:25;;;;;;;13.18;3.55;;;;;;;;;;5055075;28;20211;-69
2023/10/27 05:21:51;;;;;;;13.95;3.90;;;;;;;;;;5054581;28;20040;-70
2023/10/27 05:24:18;;;;;;;19.70;8.65;;;;;;;;;;5054780;28;20103;-70
2023/10/27 05:26:44;;;;;;;10.77;3.70;;;;;;;;;;5055027;28;20031;-70
2023/10/27 05:29:10;;;;;;;24.95;9.05;;;;;;;;;;5054711;28;20025;-69
2023/10/27 05:31:39;;;;;;;92.25;38.33;;;;;;;;;;5054658;28;20033;-70
2023/10/27 05:34:05;;;;;;;33.78;10.70;;;;;;;;;;5054771;28;20028;-69
2023/10/27 05:36:32;;;;;;;13.80;4.18;;;;;;;;;;5054218;28;20021;-69
2023/10/27 05:38:58;;;;;;;12.40;3.80;;;;;;;;;;5053269;28;20043;-70
2023/10/27 05:41:24;;;;;;;11.27;4.18;;;;;;;;;;5054665;28;20554;-69
2023/10/27 05:43:51;;;;;;;15.70;3.90;;;;;;;;;;5054571;28;20035;-70
2023/10/27 05:46:18;;;;;;;12.45;3.30;;;;;;;;;;5054696;28;20025;-69
2023/10/27 05:48:45;;;;;;;15.73;3.88;;;;;;;;;;5054396;28;20033;-70
2023/10/27 05:51:11;;;;;;;12.65;1.70;;;;;;;;;;5054019;28;20013;-70
2023/10/27 05:53:38;;;;;;;22.38;2.08;;;;;;;;;;5054300;28;20078;-69
2023/10/27 05:56:04;;;;;;;12.52;2.17;;;;;;;;;;5054427;28;20505;-70
2023/10/27 05:58:32;;;;;;;9.57;1.70;;;;;;;;;;5054062;28;20060;-69
2023/10/27 06:00:59;;;;;;;14.70;1.85;;;;;;;;;;5054271;28;20029;-70
2023/10/27 06:03:26;;;;;;;14.32;2.83;;;;;;;;;;5053792;28;20017;-68
2023/10/27 06:05:52;;;;;;;15.60;2.83;;;;;;;;;;5054389;28;20025;-69
2023/10/27 06:08:19;;;;;;;12.23;3.00;;;;;;;;;;5054040;28;20018;-69
2023/10/27 06:10:45;;;;;;;13.15;3.05;;;;;;;;;;5054471;28;20035;-69
2023/10/27 06:13:13;;;;;;;14.88;2.72;;;;;;;;;;5050586;28;20082;-71
2023/10/27 06:15:40;;;;;;;12.32;2.10;;;;;;;;;;5042365;28;20025;-70
2023/10/27 06:18:07;;;;;;;16.27;2.45;;;;;;;;;;5038070;28;20037;-69
2023/10/27 06:20:33;;;;;;;17.10;4.15;;;;;;;;;;5048592;28;20982;-70
2023/10/27 06:22:59;;;;;;;16.58;4.97;;;;;;;;;;5050325;28;20041;-71
2023/10/27 06:25:26;;;;;;;21.52;7.25;;;;;;;;;;5051671;28;20512;-70
2023/10/27 06:27:52;;;;;;;24.38;9.95;;;;;;;;;;5053174;28;20059;-69
2023/10/27 06:30:21;;;;;;;23.27;10.00;;;;;;;;;;5052628;28;20515;-70
2023/10/27 06:32:48;;;;;;;19.20;4.72;;;;;;;;;;5052461;28;20037;-70
2023/10/27 06:35:14;;;;;;;18.35;3.95;;;;;;;;;;5052950;28;20025;-70
2023/10/27 06:37:40;;;;;;;14.68;2.70;;;;;;;;;;5049752;28;20043;-70
2023/10/27 06:40:07;;;;;;;11.65;2.47;;;;;;;;;;5043470;28;20420;-70
2023/10/27 06:42:33;;;;;;;11.68;2.50;;;;;;;;;;5045826;28;20024;-70
2023/10/27 06:45:03;;;;;;;15.25;2.35;;;;;;;;;;5035270;28;20025;-70
2023/10/27 06:47:30;;;;;;;11.80;2.53;;;;;;;;;;5051385;28;20025;-69
2023/10/27 06:49:56;;;;;;;8.75;1.70;;;;;;;;;;5051445;28;20078;-69
2023/10/27 06:52:22;;;;;;;7.57;1.80;;;;;;;;;;5040831;28;20413;-70
2023/10/27 06:54:49;;;;;;;14.95;3.38;;;;;;;;;;5046055;28;20024;-70
2023/10/27 06:57:15;;;;;;;14.23;2.55;;;;;;;;;;5045518;28;20494;-70
2023/10/27 06:59:41;;;;;;;20.38;2.88;;;;;;;;;;5049134;28;20036;-70
2023/10/27 07:02:07;;;;;;;14.52;3.80;;;;;;;;;;5046903;28;20027;-69
2023/10/27 07:04:34;;;;;;;13.65;5.38;;;;;;;;;;5051306;28;20420;-67
2023/10/27 07:07:01;;;;;;;14.93;1.90;;;;;;;;;;5051733;28;20025;-70
2023/10/27 07:09:27;;;;;;;10.48;2.10;;;;;;;;;;5051237;28;20025;-70
2023/10/27 07:11:54;;;;;;;14.05;2.22;;;;;;;;;;5050776;28;20020;-69
2023/10/27 07:14:20;;;;;;;17.88;4.97;;;;;;;;;;5045673;28;20506;-70
2023/10/27 07:16:51;;;;;;;37.95;17.42;;;;;;;;;;5049648;28;20048;-69
2023/10/27 07:19:18;;;;;;;25.98;8.55;;;;;;;;;;5050523;28;20078;-69
2023/10/27 07:21:45;;;;;;;23.92;10.98;;;;;;;;;;5050320;28;20025;-69
2023/10/27 07:24:11;;;;;;;20.85;8.82;;;;;;;;;;5049696;28;20054;-69
2023/10/27 07:26:38;;;;;;;14.77;4.68;;;;;;;;;;5045899;28;20017;-70
2023/10/27 07:29:04;;;;;;;12.20;2.00;;;;;;;;;;5045286;28;20013;-70
2023/10/27 07:31:30;;;;;;;10.57;2.75;;;;;;;;;;5049667;28;20029;-70
2023/10/27 07:33:57;;;;;;;10.77;2.67;;;;;;;;;;5057433;28;20510;-69
2023/10/27 07:36:23;;;;;;;10.70;2.28;;;;;;;;;;5049955;28;20033;-71
2023/10/27 07:38:50;;;;;;;10.27;2.60;;;;;;;;;;5049735;28;20025;-70
2023/10/27 07:41:16;;;;;;;11.95;2.60;;;;;;;;;;5051163;28;20031;-71
2023/10/27 07:43:42;;;;;;;14.65;2.63;;;;;;;;;;5040947;28;20020;-71
2023/10/27 07:46:09;;;;;;;10.32;2.35;;;;;;;;;;5048284;28;20037;-69
2023/10/27 07:48:35;;;;;;;6.68;2.10;;;;;;;;;;5051518;28;20036;-69
2023/10/27 07:51:03;;;;;;;12.05;3.00;;;;;;;;;;5050603;28;20037;-69
2023/10/27 07:53:29;;;;;;;12.80;3.00;;;;;;;;;;5051000;28;20041;-71
2023/10/27 07:55:56;;;;;;;10.23;2.28;;;;;;;;;;5054788;28;20021;-70
2023/10/27 07:58:23;;;;;;;9.98;2.53;;;;;;;;;;5051110;28;20052;-71
2023/10/27 08:00:51;;;;;;;15.48;3.53;;;;;;;;;;5050844;28;20029;-69
2023/10/27 08:03:17;;;;;;;17.35;4.28;;;;;;;;;;5042479;28;20022;-70
2023/10/27 08:05:43;;;;;;;10.27;3.03;;;;;;;;;;5039149;28;20070;-69
2023/10/27 08:08:10;;;;;;;16.75;3.88;;;;;;;;;;5051177;28;20036;-70
2023/10/27 08:10:38;;;;;;;13.80;2.95;;;;;;;;;;5057256;28;20025;-69
2023/10/27 08:13:05;;;;;;;13.55;3.00;;;;;;;;;;5063680;28;20510;-68
2023/10/27 08:15:35;;;;;;;16.50;2.90;;;;;;;;;;5050162;28;20025;-70
2023/10/27 08:18:01;;;;;;;19.60;3.63;;;;;;;;;;5040695;28;20090;-70
2023/10/27 08:20:29;;;;;;;15.35;2.55;;;;;;;;;;5049048;28;20388;-68
2023/10/27 08:22:55;;;;;;;15.30;2.78;;;;;;;;;;5053298;28;20025;-69
2023/10/27 08:25:22;;;;;;;15.65;2.97;;;;;;;;;;5049357;28;20048;-70
2023/10/27 08:27:52;;;;;;;16.05;2.70;;;;;;;;;;5047096;28;20017;-69
2023/10/27 08:30:19;;;;;;;9.75;2.70;;;;;;;;;;5046824;28;20033;-71
2023/10/27 08:32:45;;;;;;;10.68;2.15;;;;;;;;;;5046778;28;20521;-70
2023/10/27 08:35:11;;;;;;;11.02;2.20;;;;;;;;;;5050677;28;20017;-69
2023/10/27 08:37:37;;;;;;;8.98;2.30;;;;;;;;;;5039540;28;20051;-68
2023/10/27 08:40:04;;;;;;;11.93;2.25;;;;;;;;;;5050781;28;20033;-69
2023/10/27 08:42:34;;;;;;;15.15;2.47;;;;;;;;;;5049865;28;20389;-70
2023/10/27 08:45:00;;;;;;;11.20;2.42;;;;;;;;;;5048358;28;20378;-68
2023/10/27 08:47:30;;;;;;;9.15;1.80;;;;;;;;;;5054149;28;20363;-70
2023/10/27 08:49:59;;;;;;;11.38;2.50;;;;;;;;;;5052208;28;20090;-69
2023/10/27 08:52:26;;;;;;;10.68;2.75;;;;;;;;;;5053098;28;20033;-69
2023/10/27 08:54:52;;;;;;;13.15;2.67;;;;;;;;;;5051433;28;20098;-68
2023/10/27 08:57:19;;;;;;;10.20;2.30;;;;;;;;;;5052864;28;20021;-69
2023/10/27 08:59:45;;;;;;;10.75;2.33;;;;;;;;;;5053623;28;20048;-69
2023/10/27 09:02:11;;;;;;;14.68;2.10;;;;;;;;;;5053972;28;20017;-70
2023/10/27 09:04:44;;;;;;;14.05;2.45;;;;;;;;;;5052516;28;20025;-69
2023/10/27 09:07:12;;;;;;;12.80;2.30;;;;;;;;;;5053863;28;20079;-69
2023/10/27 09:09:38;;;;;;;15.80;2.50;;;;;;;;;;5052803;28;20033;-69
2023/10/27 09:12:05;;;;;;;8.13;2.47;;;;;;;;;;5047085;28;20028;-70
2023/10/27 09:14:32;;;;;;;13.48;2.80;;;;;;;;;;5052442;28;20371;-69
2023/10/27 09:17:05;;;;;;;17.33;3.45;;;;;;;;;;5053494;28;20035;-70
2023/10/27 09:19:32;;;;;;;8.13;2.00;;;;;;;;;;5053710;28;20021;-68
2023/10/27 09:21:58;;;;;;;8.70;2.63;;;;;;;;;;5053515;28;20025;-71
2023/10/27 09:24:26;;;;;;;14.30;2.47;;;;;;;;;;5053621;28;20088;-69
2023/10/27 09:26:53;;;;;;;14.02;2.53;;;;;;;;;;5053485;28;20393;-69
2023/10/27 09:29:20;;;;;;;5.72;2.42;;;;;;;;;;5051426;28;20033;-70
2023/10/27 09:31:46;;;;;;;8.25;2.38;;;;;;;;;;5053504;28;20017;-70
2023/10/27 09:34:17;;;;;;;8.02;1.60;;;;;;;;;;5053446;28;20401;-70
2023/10/27 09:36:45;;;;;;;8.13;2.03;;;;;;;;;;5063321;28;20036;-70
2023/10/27 09:39:16;;;;;;;6.78;2.10;;;;;;;;;;5073545;28;20033;-69
2023/10/27 09:41:47;;;;;;;8.77;2.05;;;;;;;;;;5073047;28;20047;-69
2023/10/27 09:44:13;;;;;;;;;;;;;;;;;;5035247;28;20043;-71
2023/10/27 09:46:40;;;;;;;7.88;1.65;;;;;;;;;;5049820;28;19913;-71
2023/10/27 09:49:08;;;;;;;8.13;2.20;;;;;;;;;;5041522;28;20025;-70
2023/10/27 09:51:36;;;;;;;6.25;1.70;;;;;;;;;;5049614;28;20017;-70
2023/10/27 09:54:03;;;;;;;8.40;1.90;;;;;;;;;;5052163;28;20501;-71
2023/10/27 09:56:29;;;;;;;8.25;1.80;;;;;;;;;;5046284;28;20023;-71
2023/10/27 09:58:55;;;;;;;8.85;1.98;;;;;;;;;;5052770;28;20045;-71
2023/10/27 10:01:22;;;;;;;10.43;2.10;;;;;;;;;;5059543;28;20032;-71
2023/10/27 10:03:48;;;;;;;8.30;2.53;;;;;;;;;;5043265;28;20398;-70
2023/10/27 10:06:17;;;;;;;10.30;1.77;;;;;;;;;;5046322;28;20188;-71
2023/10/27 10:09:04;;;;;;;6.43;1.60;;;;;;;;;;5052892;28;20474;-71
2023/10/27 10:11:36;;;;;;;7.38;1.95;;;;;;;;;;5039831;28;20032;-71
2023/10/27 10:14:04;;;;;;;5.28;1.80;;;;;;;;;;5052818;28;20036;-71
2023/10/27 10:16:40;;;;;;;3.85;1.50;;;;;;;;;;5052656;28;20599;-71
2023/10/27 10:19:07;;;;;;;7.60;2.10;;;;;;;;;;5052616;28;20508;-71
2023/10/27 10:21:38;;;;;;;8.52;1.90;;;;;;;;;;5052818;28;20021;-72
2023/10/27 10:24:08;;;;;;;7.30;2.35;;;;;;;;;;5053092;28;20021;-71
2023/10/27 10:26:53;;;;;;;7.07;2.90;;;;;;;;;;5052432;28;20032;-71
2023/10/27 10:29:28;;;;;;;4.93;1.45;;;;;;;;;;5051013;28;20527;-71
2023/10/27 10:32:15;;;;;;;9.50;1.80;;;;;;;;;;5052368;28;20036;-72
2023/10/27 10:35:01;;;;;;;4.88;1.40;;;;;;;;;;5053069;28;20033;-71
2023/10/27 10:37:28;;;;;;;5.28;1.48;;;;;;;;;;5051622;28;20058;-71
2023/10/27 10:40:14;;;;;;;5.65;1.42;;;;;;;;;;5052675;28;20032;-71
2023/10/27 10:42:58;;;;;;;5.53;1.40;;;;;;;;;;5052624;28;20020;-72
2023/10/27 10:45:25;;;;;;;5.13;1.60;;;;;;;;;;5052834;28;20028;-71
2023/10/27 10:47:55;;;;;;;8.48;1.50;;;;;;;;;;5052676;28;20505;-71
2023/10/27 10:50:30;;;;;;;4.10;1.15;;;;;;;;;;5052533;28;20021;-71
2023/10/27 10:53:16;;;;;;;7.53;1.33;;;;;;;;;;5052387;28;20079;-70
2023/10/27 10:55:45;;;;;;;5.35;1.35;;;;;;;;;;5051927;28;20047;-72
2023/10/27 10:58:20;;;;;;;8.20;1.70;;;;;;;;;;5052602;28;20039;-71
2023/10/27 11:00:48;;;;;;;5.43;1.35;;;;;;;;;;5052602;28;20444;-71
2023/10/27 11:03:14;;;;;;;4.18;1.67;;;;;;;;;;5052488;28;20035;-71
2023/10/27 11:05:41;;;;;;;4.60;1.48;;;;;;;;;;5052203;28;20367;-71
2023/10/27 11:08:08;;;;;;;4.95;1.55;;;;;;;;;;5051642;28;20028;-71
2023/10/27 11:10:35;;;;;;;5.05;1.50;;;;;;;;;;5052521;28;20033;-71
2023/10/27 11:13:03;;;;;;;5.68;1.50;;;;;;;;;;5052032;28;20033;-71
2023/10/27 11:15:43;;;;;;;6.13;1.40;;;;;;;;;;5052130;28;20466;-72
2023/10/27 11:18:15;;;;;;;8.17;1.80;;;;;;;;;;5052416;28;20388;-72
2023/10/27 11:20:43;;;;;;;4.32;1.48;;;;;;;;;;5052066;28;20259;-71
2023/10/27 11:23:10;;;;;;;3.78;1.88;;;;;;;;;;5051808;28;20025;-72
2023/10/27 11:25:36;;;;;;;5.13;1.38;;;;;;;;;;5051897;28;20493;-71
2023/10/27 11:28:19;;;;;;;6.15;1.40;;;;;;;;;;5051690;28;20032;-72
2023/10/27 11:31:08;;;;;;;4.60;1.30;;;;;;;;;;5052044;28;20021;-71
2023/10/27 11:33:53;;;;;;;4.05;1.55;;;;;;;;;;5049550;28;20090;-71
2023/10/27 11:36:20;;;;;;;5.43;1.75;;;;;;;;;;5051964;28;20499;-71
2023/10/27 11:38:47;;;;;;;6.50;1.48;;;;;;;;;;5052126;28;20035;-72
2023/10/27 11:41:13;;;;;;;2.60;1.20;;;;;;;;;;5046603;28;20029;-72
2023/10/27 11:43:40;;;;;;;4.40;1.30;;;;;;;;;;5047225;28;20032;-70
2023/10/27 11:46:17;;;;;;;4.68;1.50;;;;;;;;;;5052373;28;20025;-71
2023/10/27 11:48:44;;;;;;;3.60;1.15;;;;;;;;;;5048314;28;20489;-71
2023/10/27 11:51:10;;;;;;;2.88;1.30;;;;;;;;;;5049732;28;20456;-71
2023/10/27 11:53:40;;;;;;;2.88;1.20;;;;;;;;;;5050241;28;20044;-70
2023/10/27 11:56:07;;;;;;;4.07;1.42;;;;;;;;;;5051668;28;20028;-72
2023/10/27 11:58:33;;;;;;;2.97;1.00;;;;;;;;;;5050336;28;20689;-70
2023/10/27 12:00:59;;;;;;;4.32;1.42;;;;;;;;;;5045883;28;20021;-72
2023/10/27 12:03:26;;;;;;;4.25;1.30;;;;;;;;;;5049350;28;20037;-70
2023/10/27 12:05:52;;;;;;;4.32;1.13;;;;;;;;;;5048272;28;20039;-71
2023/10/27 12:08:18;;;;;;;3.28;1.00;;;;;;;;;;5051333;28;20482;-72
2023/10/27 12:10:45;;;;;;;4.40;1.25;;;;;;;;;;5050180;28;20032;-70
2023/10/27 12:13:11;;;;;;;5.25;1.23;;;;;;;;;;5046549;28;20084;-72
2023/10/27 12:15:37;;;;;;;4.20;1.02;;;;;;;;;;5040841;28;20021;-71
2023/10/27 12:18:04;;;;;;;5.03;1.20;;;;;;;;;;5045612;28;20029;-72
2023/10/27 12:20:33;;;;;;;4.93;1.20;;;;;;;;;;5051837;28;20032;-71
2023/10/27 12:23:00;;;;;;;5.40;1.58;;;;;;;;;;5052620;28;20040;-69
2023/10/27 12:25:26;;;;;;;1.95;1.00;;;;;;;;;;5050779;28;20021;-70
2023/10/27 12:27:52;;;;;;;2.83;0.88;;;;;;;;;;5042499;28;20078;-70
2023/10/27 12:30:23;;;;;;;2.10;0.90;;;;;;;;;;5045325;28;20036;-71
2023/10/27 12:32:50;;;;;;;3.70;1.05;;;;;;;;;;5042336;28;20025;-71
2023/10/27 12:35:16;;;;;;;4.00;1.08;;;;;;;;;;5054389;28;20025;-71
2023/10/27 12:37:43;;;;;;;3.58;1.05;;;;;;;;;;5052952;28;20025;-70
2023/10/27 12:40:12;;;;;;;3.88;1.02;;;;;;;;;;5054425;28;20081;-71
2023/10/27 12:42:39;;;;;;;4.85;1.40;;;;;;;;;;5056583;28;20028;-71
2023/10/27 12:45:06;;;;;;;3.97;1.30;;;;;;;;;;5053809;28;20025;-71
2023/10/27 12:47:32;;;;;;;2.75;1.00;;;;;;;;;;5046305;28;20440;-71
2023/10/27 12:49:59;;;;;;;3.17;1.00;;;;;;;;;;5053278;28;20029;-71
2023/10/27 12:52:29;;;;;;;3.70;1.08;;;;;;;;;;5032948;28;20043;-71
2023/10/27 12:54:55;;;;;;;2.77;1.10;;;;;;;;;;5054624;28;20466;-71
2023/10/27 12:57:22;;;;;;;4.00;0.98;;;;;;;;;;5054145;28;20267;-71
2023/10/27 12:59:50;;;;;;;3.25;0.82;;;;;;;;;;5053583;28;20036;-71
2023/10/27 13:02:16;;;;;;;2.58;0.80;;;;;;;;;;5049292;28;20486;-70
2023/10/27 13:04:43;;;;;;;2.85;0.85;;;;;;;;;;5047289;28;20032;-71
2023/10/27 13:07:09;;;;;;;2.72;0.70;;;;;;;;;;5054182;28;20033;-70
2023/10/27 13:09:36;;;;;;;3.80;0.73;;;;;;;;;;5055042;28;20081;-71
2023/10/27 13:12:04;;;;;;;3.42;0.80;;;;;;;;;;5052170;28;20029;-71
2023/10/27 13:14:31;;;;;;;3.33;0.80;;;;;;;;;;5042076;28;20041;-71
2023/10/27 13:16:58;;;;;;;3.65;1.10;;;;;;;;;;5034629;28;20025;-71
2023/10/27 13:19:24;;;;;;;4.25;1.02;;;;;;;;;;5041280;28;20401;-71
2023/10/27 13:21:51;;;;;;;6.25;1.13;;;;;;;;;;5053185;28;20020;-70
2023/10/27 13:24:18;;;;;;;3.42;1.00;;;;;;;;;;5052578;28;20041;-71
2023/10/27 13:26:45;;;;;;;2.88;0.70;;;;;;;;;;5045891;28;20017;-71
2023/10/27 13:29:12;;;;;;;2.30;0.95;;;;;;;;;;5053204;28;20047;-70
2023/10/27 13:31:44;;;;;;;2.97;0.73;;;;;;;;;;5052989;28;20024;-71
2023/10/27 13:34:13;;;;;;;3.83;0.77;;;;;;;;;;5053301;28;20043;-70
2023/10/27 13:36:40;;;;;;;7.55;0.90;;;;;;;;;;5045309;28;20025;-70
2023/10/27 13:39:07;;;;;;;4.22;0.70;;;;;;;;;;5046214;28;20025;-71
2023/10/27 13:41:36;;;;;;;5.53;1.05;;;;;;;;;;5051988;28;20021;-70
2023/10/27 13:44:04;;;;;;;3.40;0.90;;;;;;;;;;5048857;28;20498;-71
2023/10/27 13:46:32;;;;;;;3.53;0.90;;;;;;;;;;5049100;28;20078;-68
2023/10/27 13:48:58;;;;;;;5.97;0.82;;;;;;;;;;5049771;28;20066;-71
2023/10/27 13:51:24;;;;;;;4.65;1.15;;;;;;;;;;5047518;28;20489;-71
2023/10/27 13:53:54;;;;;;;3.55;0.93;;;;;;;;;;5049428;28;20041;-71
2023/10/27 13:56:20;;;;;;;4.35;0.80;;;;;;;;;;5039618;28;20029;-71
2023/10/27 13:58:47;;;;;;;3.85;0.98;;;;;;;;;;5052491;28;20514;-71
2023/10/27 14:01:14;;;;;;;3.17;1.40;;;;;;;;;;5051597;28;20021;-70
2023/10/27 14:03:40;;;;;;;3.85;1.40;;;;;;;;;;5051521;28;20405;-71
2023/10/27 14:06:12;;;;;;;4.35;2.53;;;;;;;;;;5053320;28;20078;-70
2023/10/27 14:08:39;;;;;;;3.00;1.20;;;;;;;;;;5053129;28;20043;-71
2023/10/27 14:11:06;;;;;;;6.75;3.83;;;;;;;;;;5053292;28;20021;-71
2023/10/27 14:13:32;;;;;;;15.82;9.07;;;;;;;;;;5053115;28;20043;-70
2023/10/27 14:15:59;;;;;;;4.30;1.30;;;;;;;;;;5053003;28;20024;-70
2023/10/27 14:18:29;;;;;;;8.30;2.28;;;;;;;;;;5038748;28;20025;-70
2023/10/27 14:20:55;;;;;;;6.78;3.45;;;;;;;;;;5052851;28;20040;-71
2023/10/27 14:23:22;;;;;;;4.57;1.20;;;;;;;;;;5053148;28;20037;-71
2023/10/27 14:25:48;;;;;;;13.27;6.60;;;;;;;;;;5051619;28;20031;-70
2023/10/27 14:28:15;;;;;;;9.35;3.90;;;;;;;;;;5052066;28;20039;-71
2023/10/27 14:30:41;;;;;;;8.43;6.00;;;;;;;;;;5050905;28;20025;-71
2023/10/27 14:33:08;;;;;;;5.93;3.60;;;;;;;;;;5051956;28;20051;-71
2023/10/27 14:35:35;;;;;;;3.70;1.83;;;;;;;;;;5042305;28;20026;-70
2023/10/27 14:38:02;;;;;;;6.75;2.80;;;;;;;;;;5047147;28;20037;-71
2023/10/27 14:40:28;;;;;;;3.85;0.98;;;;;;;;;;5045499;28;20389;-70